Time;durP1;ratioP1;P1;durP2;ratioP2;P2;SDS_P1;SDS_P2;PMS_P1;PMS_P2;Temp;Humidity;BMP_temperature;BMP_pressure;BME280_temperature;BME280_humidity;BME280_pressure;Samples;Min_cycle;Max_cycle;Signal;HPM_P1;HPM_P2
2021/01/08 00:02:21;;;;;;;;;;;;;;;20.56;29.88;99705.41;5051472;28;20386;-65
2021/01/08 00:04:48;;;;;;;;;;;;;;;20.57;29.85;99704.28;5048588;28;20464;-65
2021/01/08 00:07:14;;;;;;;;;;;;;;;20.59;29.91;99702.06;5034846;28;19932;-66
2021/01/08 00:09:41;;;;;;;;;;;;;;;20.59;29.84;99710.38;5018125;28;19925;-65
2021/01/08 00:12:07;;;;;;;;;;;;;;;20.58;29.91;99699.56;5061206;28;19925;-65
2021/01/08 00:14:33;;;;;;;;;;;;;;;20.57;29.91;99703.47;5057437;28;19924;-65
2021/01/08 00:16:59;;;;;;;;;;;;;;;20.57;30.12;99704.28;5018228;28;20398;-66
2021/01/08 00:19:27;;;;;;;;;;;;;;;20.57;29.96;99697.94;5046752;28;19929;-66
2021/01/08 00:21:53;;;;;;;;;;;;;;;20.56;29.95;99697.09;5017574;28;19968;-66
2021/01/08 00:24:19;;;;;;;;;;;;;;;20.54;29.89;99701.28;5017953;28;19971;-66
2021/01/08 00:26:47;;;;;;;;;;;;;;;20.55;30.23;99705.69;5052058;28;20019;-65
2021/01/08 00:29:15;;;;;;;;;;;;;;;20.53;30.04;99694.91;5052197;28;19925;-66
2021/01/08 00:31:42;;;;;;;;;;;;;;;20.50;30.14;99698.28;5034296;28;20287;-65
2021/01/08 00:34:15;;;;;;;;;;;;;;;20.49;30.23;99696.63;5034117;28;20977;-66
2021/01/08 00:36:52;;;;;;;;;;;;;;;20.50;30.14;99701.03;5051999;28;20464;-65
2021/01/08 00:39:24;;;;;;;;;;;;;;;20.48;30.08;99692.22;5034337;28;19932;-65
2021/01/08 00:41:50;;;;;;;;;;;;;;;20.52;30.10;99696.03;5033905;28;20021;-66
2021/01/08 00:44:17;;;;;;;;;;;;;;;20.50;30.10;99698.28;5033389;28;20501;-65
2021/01/08 00:46:44;;;;;;;;;;;;;;;20.49;29.96;99695.81;5049501;28;19928;-65
2021/01/08 00:49:11;;;;;;;;;;;;;;;20.51;30.17;99696.34;5051401;28;19925;-65
2021/01/08 00:51:37;;;;;;;;;;;;;;;20.51;30.04;99699.09;5038542;28;19932;-66
2021/01/08 00:54:05;;;;;;;;;;;;;;;20.52;30.11;99696.03;5034070;28;19925;-65
2021/01/08 00:56:31;;;;;;;;;;;;;;;20.56;30.20;99683.25;5053144;28;19924;-66
2021/01/08 00:59:09;;;;;;;;;;;;;;;20.56;30.10;99686.03;5003112;28;20052;-66
2021/01/08 01:01:35;;;;;;;;;;;;;;;20.58;30.09;99688.50;5033606;28;19936;-66
2021/01/08 01:04:02;;;;;;;;;;;;;;;20.58;30.12;99689.34;5033681;28;19931;-66
2021/01/08 01:06:29;;;;;;;;;;;;;;;20.57;30.02;99687.69;5050214;28;20199;-66
2021/01/08 01:08:56;;;;;;;;;;;;;;;20.56;29.92;99690.75;5016914;28;20361;-67
2021/01/08 01:11:23;;;;;;;;;;;;;;;20.57;29.83;99692.41;5017450;28;19965;-67
2021/01/08 01:13:51;;;;;;;;;;;;;;;20.58;29.93;99680.19;5016956;28;19972;-66
2021/01/08 01:16:18;;;;;;;;;;;;;;;20.57;29.98;99684.09;5017404;28;19978;-66
2021/01/08 01:18:44;;;;;;;;;;;;;;;20.58;30.12;99689.34;5051121;28;19924;-66
2021/01/08 01:21:12;;;;;;;;;;;;;;;20.58;29.85;99686.56;5049885;28;20027;-67
2021/01/08 01:23:38;;;;;;;;;;;;;;;20.58;30.22;99694.88;5050887;28;19954;-67
2021/01/08 01:26:05;;;;;;;;;;;;;;;20.59;29.93;99681.84;5049568;28;19961;-66
2021/01/08 01:28:32;;;;;;;;;;;;;;;20.59;30.08;99684.63;5033119;28;20027;-65
2021/01/08 01:30:58;;;;;;;;;;;;;;;20.55;29.83;99683.56;5033467;28;19925;-66
2021/01/08 01:33:25;;;;;;;;;;;;;;;20.52;30.11;99693.28;5033051;28;20421;-66
2021/01/08 01:35:53;;;;;;;;;;;;;;;20.50;30.10;99681.66;5033304;28;19924;-66
2021/01/08 01:38:19;;;;;;;;;;;;;;;20.49;30.05;99691.09;5033358;28;19929;-66
2021/01/08 01:40:45;;;;;;;;;;;;;;;20.51;30.36;99688.03;5016673;28;19928;-65
2021/01/08 01:43:12;;;;;;;;;;;;;;;20.51;30.18;99688.84;5016223;28;20594;-65
2021/01/08 01:45:38;;;;;;;;;;;;;;;20.49;30.05;99685.56;5046566;28;19975;-65
2021/01/08 01:48:04;;;;;;;;;;;;;;;20.51;30.28;99691.63;5049442;28;19970;-65
2021/01/08 01:50:31;;;;;;;;;;;;;;;20.54;30.04;99687.44;5034683;28;19925;-66
2021/01/08 01:52:57;;;;;;;;;;;;;;;20.55;30.21;99689.91;5033203;28;20386;-65
2021/01/08 01:55:23;;;;;;;;;;;;;;;20.56;30.01;99686.03;5032845;28;19960;-65
2021/01/08 01:57:50;;;;;;;;;;;;;;;20.57;30.08;99693.22;5033279;28;20301;-66
2021/01/08 02:00:17;;;;;;;;;;;;;;;20.58;30.15;99689.34;5016391;28;19975;-65
2021/01/08 02:02:44;;;;;;;;;;;;;;;20.60;30.15;99684.31;5049583;28;20373;-65
2021/01/08 02:05:12;;;;;;;;;;;;;;;20.61;30.05;99688.75;5032988;28;19931;-65
2021/01/08 02:07:47;;;;;;;;;;;;;;;20.59;29.95;99685.44;5032861;28;19925;-64
2021/01/08 02:10:13;;;;;;;;;;;;;;;20.59;30.05;99688.22;5016354;28;20279;-65
2021/01/08 02:12:40;;;;;;;;;;;;;;;20.58;29.89;99686.56;5033138;28;20294;-65
2021/01/08 02:15:06;;;;;;;;;;;;;;;20.57;30.16;99692.41;4996960;28;19944;-65
2021/01/08 02:17:32;;;;;;;;;;;;;;;20.55;29.89;99695.47;5018989;28;19925;-64
2021/01/08 02:20:00;;;;;;;;;;;;;;;20.55;30.01;99689.91;5032714;28;20390;-64
2021/01/08 02:22:47;;;;;;;;;;;;;;;20.55;30.22;99692.69;5032677;28;19929;-65
2021/01/08 02:25:13;;;;;;;;;;;;;;;20.54;29.94;99682.72;5030987;28;19925;-65
2021/01/08 02:27:39;;;;;;;;;;;;;;;20.54;30.17;99679.97;5049562;28;20369;-65
2021/01/08 02:30:06;;;;;;;;;;;;;;;20.52;30.21;99689.69;5049205;28;20360;-65
2021/01/08 02:32:32;;;;;;;;;;;;;;;20.50;29.96;99687.19;5016145;28;20416;-65
2021/01/08 02:34:59;;;;;;;;;;;;;;;20.48;30.38;99683.91;5032470;28;20421;-65
2021/01/08 02:37:25;;;;;;;;;;;;;;;20.47;30.21;99682.25;5032407;28;20394;-66
2021/01/08 02:39:51;;;;;;;;;;;;;;;20.48;30.33;99677.53;5032528;28;20011;-65
2021/01/08 02:42:17;;;;;;;;;;;;;;;20.49;30.37;99679.19;5032468;28;20460;-66
2021/01/08 02:44:43;;;;;;;;;;;;;;;20.47;30.20;99671.19;5018299;28;20382;-64
2021/01/08 02:47:10;;;;;;;;;;;;;;;20.48;30.13;99672.84;5049420;28;19979;-65
2021/01/08 02:49:36;;;;;;;;;;;;;;;20.49;30.37;99671.72;5049946;28;19929;-65
2021/01/08 02:52:03;;;;;;;;;;;;;;;20.49;30.18;99673.66;5016945;28;19928;-64
2021/01/08 02:54:29;;;;;;;;;;;;;;;20.52;30.23;99684.97;5030268;28;19931;-66
2021/01/08 02:56:55;;;;;;;;;;;;;;;20.60;30.31;99676.03;5029771;28;20420;-66
2021/01/08 02:59:22;;;;;;;;;;;;;;;20.61;30.18;99674.06;5030430;28;19925;-65
2021/01/08 03:01:48;;;;;;;;;;;;;;;20.55;29.83;99678.84;5023470;28;19932;-65
2021/01/08 03:04:14;;;;;;;;;;;;;;;20.51;29.87;99683.31;5003487;28;19971;-66
2021/01/08 03:06:41;;;;;;;;;;;;;;;20.49;30.04;99680.00;5013707;28;20007;-66
2021/01/08 03:09:08;;;;;;;;;;;;;;;20.47;29.85;99671.19;5013855;28;19936;-65
2021/01/08 03:11:35;;;;;;;;;;;;;;;20.46;29.80;99675.06;5052891;28;20391;-66
2021/01/08 03:14:01;;;;;;;;;;;;;;;20.47;30.23;99675.88;5052438;28;19972;-65
2021/01/08 03:16:27;;;;;;;;;;;;;;;20.45;29.72;99673.41;5018852;28;20406;-65
2021/01/08 03:18:54;;;;;;;;;;;;;;;20.45;29.83;99675.34;5053081;28;19931;-65
2021/01/08 03:21:20;;;;;;;;;;;;;;;20.40;29.72;99673.50;5052637;28;19925;-65
2021/01/08 03:23:46;;;;;;;;;;;;;;;20.41;29.94;99675.16;5032018;28;19976;-65
2021/01/08 03:26:12;;;;;;;;;;;;;;;20.38;29.74;99673.78;5035730;28;19929;-66
2021/01/08 03:28:39;;;;;;;;;;;;;;;20.40;30.02;99673.50;5053489;28;19932;-66
2021/01/08 03:31:05;;;;;;;;;;;;;;;20.37;30.00;99671.28;5035563;28;19924;-66
2021/01/08 03:33:31;;;;;;;;;;;;;;;20.36;29.80;99670.47;5039086;28;20012;-66
2021/01/08 03:35:57;;;;;;;;;;;;;;;20.35;30.02;99670.75;5035535;28;19956;-64
2021/01/08 03:38:24;;;;;;;;;;;;;;;20.36;29.58;99672.41;5052945;28;19979;-65
2021/01/08 03:40:50;;;;;;;;;;;;;;;20.35;29.82;99670.75;5035171;28;19924;-65
2021/01/08 03:43:16;;;;;;;;;;;;;;;20.37;29.69;99674.06;5051737;28;19952;-64
2021/01/08 03:45:42;;;;;;;;;;;;;;;20.38;29.58;99672.97;5018430;28;20299;-65
2021/01/08 03:48:09;;;;;;;;;;;;;;;20.39;29.73;99669.09;5051506;28;20322;-66
2021/01/08 03:50:36;;;;;;;;;;;;;;;20.40;29.55;99668.78;5034613;28;19951;-65
2021/01/08 03:53:02;;;;;;;;;;;;;;;20.40;29.75;99676.28;5052824;28;20046;-65
2021/01/08 03:55:28;;;;;;;;;;;;;;;20.41;29.74;99672.38;5023096;28;19947;-65
2021/01/08 03:57:55;;;;;;;;;;;;;;;20.43;29.44;99677.63;5049354;28;19925;-65
2021/01/08 04:00:22;;;;;;;;;;;;;;;20.43;29.72;99678.44;5033641;28;20394;-65
2021/01/08 04:02:48;;;;;;;;;;;;;;;20.44;29.21;99677.34;5032713;28;19980;-65
2021/01/08 04:05:14;;;;;;;;;;;;;;;20.43;29.26;99669.31;5051942;28;19990;-65
2021/01/08 04:07:40;;;;;;;;;;;;;;;20.40;29.38;99666.03;5051764;28;20027;-64
2021/01/08 04:10:07;;;;;;;;;;;;;;;20.41;29.33;99677.91;5050118;28;20417;-65
2021/01/08 04:12:33;;;;;;;;;;;;;;;20.35;29.40;99668.81;5017782;28;20390;-65
2021/01/08 04:15:00;;;;;;;;;;;;;;;20.34;29.35;99677.41;5051591;28;20440;-65
2021/01/08 04:17:26;;;;;;;;;;;;;;;20.35;29.34;99665.22;5033908;28;20372;-65
2021/01/08 04:19:52;;;;;;;;;;;;;;;20.32;29.40;99672.16;5051704;28;19929;-65
2021/01/08 04:22:18;;;;;;;;;;;;;;;20.30;29.22;99670.81;5051379;28;19935;-66
2021/01/08 04:24:45;;;;;;;;;;;;;;;20.26;29.16;99666.97;5049437;28;20405;-66
2021/01/08 04:27:12;;;;;;;;;;;;;;;20.27;29.31;99676.94;5051437;28;20370;-65
2021/01/08 04:29:38;;;;;;;;;;;;;;;20.29;29.20;99667.22;5047740;28;20287;-65
2021/01/08 04:32:05;;;;;;;;;;;;;;;20.26;29.29;99666.97;5047028;28;19925;-65
2021/01/08 04:34:31;;;;;;;;;;;;;;;20.28;29.18;99671.09;5021028;28;19975;-65
2021/01/08 04:36:58;;;;;;;;;;;;;;;20.33;29.11;99667.44;5048091;28;20302;-65
2021/01/08 04:39:24;;;;;;;;;;;;;;;20.30;28.97;99666.09;5046730;28;20002;-65
2021/01/08 04:41:50;;;;;;;;;;;;;;;20.30;29.14;99671.63;5045704;28;20450;-64
2021/01/08 04:44:17;;;;;;;;;;;;;;;20.28;29.32;99664.75;5023773;28;20283;-65
2021/01/08 04:46:43;;;;;;;;;;;;;;;20.26;29.07;99664.22;5051080;28;20377;-64
2021/01/08 04:49:10;;;;;;;;;;;;;;;20.25;28.97;99660.63;5016679;28;19944;-65
2021/01/08 04:51:36;;;;;;;;;;;;;;;20.24;29.25;99663.66;5017118;28;19929;-65
2021/01/08 04:54:04;;;;;;;;;;;;;;;20.23;29.23;99665.63;5020895;28;19932;-65
2021/01/08 04:56:37;;;;;;;;;;;;;;;20.23;29.26;99664.78;5032504;28;20367;-65
2021/01/08 04:59:04;;;;;;;;;;;;;;;20.22;29.26;99666.72;5048511;28;19928;-65
2021/01/08 05:01:30;;;;;;;;;;;;;;;20.21;28.96;99659.53;5032139;28;19932;-65
2021/01/08 05:03:56;;;;;;;;;;;;;;;20.20;29.26;99657.06;5049619;28;20035;-64
2021/01/08 05:06:23;;;;;;;;;;;;;;;20.18;29.20;99657.38;5031636;28;19931;-65
2021/01/08 05:08:49;;;;;;;;;;;;;;;20.17;29.06;99652.94;5015274;28;19933;-65
2021/01/08 05:11:19;;;;;;;;;;;;;;;20.17;29.29;99657.66;5031740;28;20021;-67
2021/01/08 05:13:49;;;;;;;;;;;;;;;20.19;29.04;99659.00;5044405;28;19929;-65
2021/01/08 05:16:15;;;;;;;;;;;;;;;20.17;29.25;99654.88;5044715;28;19925;-66
2021/01/08 05:18:42;;;;;;;;;;;;;;;20.17;29.20;99660.41;5051106;28;19925;-65
2021/01/08 05:21:08;;;;;;;;;;;;;;;20.18;29.04;99662.06;5050971;28;19944;-65
2021/01/08 05:23:34;;;;;;;;;;;;;;;20.16;29.23;99667.06;5050725;28;19925;-65
2021/01/08 05:26:01;;;;;;;;;;;;;;;20.20;29.25;99665.38;5033424;28;19952;-66
2021/01/08 05:28:28;;;;;;;;;;;;;;;20.20;29.20;99665.38;5017001;28;19925;-64
2021/01/08 05:30:56;;;;;;;;;;;;;;;20.20;29.10;99657.91;5049763;28;19932;-64
2021/01/08 05:33:22;;;;;;;;;;;;;;;20.22;29.04;99672.25;5032763;28;20383;-65
2021/01/08 05:35:49;;;;;;;;;;;;;;;20.22;28.92;99674.22;5050703;28;19925;-65
2021/01/08 05:38:18;;;;;;;;;;;;;;;20.21;29.00;99672.56;5016246;28;20028;-65
2021/01/08 05:40:44;;;;;;;;;;;;;;;20.22;28.93;99680.56;5046271;28;19964;-65
2021/01/08 05:43:10;;;;;;;;;;;;;;;20.22;28.95;99674.22;5050749;28;20081;-65
2021/01/08 05:45:36;;;;;;;;;;;;;;;20.20;29.11;99676.44;5016975;28;19963;-65
2021/01/08 05:48:03;;;;;;;;;;;;;;;20.19;28.92;99674.78;5049245;28;20012;-65
2021/01/08 05:50:30;;;;;;;;;;;;;;;20.17;28.95;99677.03;5050596;28;19931;-66
2021/01/08 05:53:03;;;;;;;;;;;;;;;20.16;29.07;99678.13;5033117;28;19933;-65
2021/01/08 05:55:33;;;;;;;;;;;;;;;20.17;28.90;99675.09;5032908;28;20309;-66
2021/01/08 05:57:59;;;;;;;;;;;;;;;20.17;29.04;99674.25;5033139;28;19932;-66
2021/01/08 06:00:26;;;;;;;;;;;;;;;20.17;28.81;99682.56;5050714;28;19928;-65
2021/01/08 06:02:52;;;;;;;;;;;;;;;20.18;29.03;99681.44;5032675;28;20020;-66
2021/01/08 06:05:19;;;;;;;;;;;;;;;20.15;29.18;99680.06;5032933;28;19943;-65
2021/01/08 06:07:49;;;;;;;;;;;;;;;20.15;29.05;99673.72;5033003;28;19928;-65
2021/01/08 06:10:18;;;;;;;;;;;;;;;20.17;28.95;99672.31;5032897;28;19932;-65
2021/01/08 06:12:44;;;;;;;;;;;;;;;20.18;29.21;99679.50;5050567;28;20019;-65
2021/01/08 06:15:11;;;;;;;;;;;;;;;20.16;28.99;99680.91;5016199;28;19971;-66
2021/01/08 06:17:38;;;;;;;;;;;;;;;20.15;29.20;99680.06;5032927;28;19974;-65
2021/01/08 06:20:05;;;;;;;;;;;;;;;20.20;28.82;99685.56;5032455;28;19925;-64
2021/01/08 06:22:38;;;;;;;;;;;;;;;20.21;28.83;99678.09;5032975;28;20240;-65
2021/01/08 06:25:09;;;;;;;;;;;;;;;20.21;28.82;99680.84;5032918;28;19924;-65
2021/01/08 06:27:35;;;;;;;;;;;;;;;20.21;28.76;99684.44;5032988;28;20369;-65
2021/01/08 06:30:05;;;;;;;;;;;;;;;20.20;28.79;99679.22;5032529;28;19924;-67
2021/01/08 06:32:32;;;;;;;;;;;;;;;20.20;29.03;99684.75;5032774;28;19952;-65
2021/01/08 06:35:05;;;;;;;;;;;;;;;20.20;29.04;99682.81;5048917;28;19975;-65
2021/01/08 06:37:49;;;;;;;;;;;;;;;20.17;28.67;99682.56;5032490;28;19979;-64
2021/01/08 06:40:15;;;;;;;;;;;;;;;20.15;28.75;99684.78;5032553;28;19924;-64
2021/01/08 06:42:43;;;;;;;;;;;;;;;20.15;28.83;99691.16;5032449;28;19979;-65
2021/01/08 06:45:11;;;;;;;;;;;;;;;20.14;28.85;99692.25;5034610;28;19924;-65
2021/01/08 06:47:37;;;;;;;;;;;;;;;20.12;28.89;99691.72;5019861;28;19929;-65
2021/01/08 06:50:04;;;;;;;;;;;;;;;20.14;28.99;99697.78;5019920;28;20471;-65
2021/01/08 06:52:31;;;;;;;;;;;;;;;20.13;28.88;99698.91;5052666;28;19925;-65
2021/01/08 06:54:58;;;;;;;;;;;;;;;20.13;29.09;99693.38;5036379;28;19924;-66
2021/01/08 06:57:24;;;;;;;;;;;;;;;20.15;29.10;99695.84;5035971;28;19928;-65
2021/01/08 06:59:59;;;;;;;;;;;;;;;20.16;28.75;99700.28;5053902;28;19925;-66
2021/01/08 07:02:25;;;;;;;;;;;;;;;20.18;29.01;99718.25;5035957;28;19931;-65
2021/01/08 07:04:52;;;;;;;;;;;;;;;20.16;28.73;99714.09;5019597;28;19963;-65
2021/01/08 07:07:25;;;;;;;;;;;;;;;20.17;29.07;99715.75;5052389;28;19994;-65
2021/01/08 07:09:52;;;;;;;;;;;;;;;20.16;28.79;99720.47;5035533;28;19925;-65
2021/01/08 07:12:21;;;;;;;;;;;;;;;20.18;28.93;99717.41;5053550;28;20002;-66
2021/01/08 07:14:47;;;;;;;;;;;;;;;20.18;28.78;99725.72;5064138;23;19932;-58
2021/01/08 07:17:14;;;;;;;;;;;;;;;20.17;28.85;99727.66;5072414;28;19925;-58
2021/01/08 07:19:41;;;;;;;;;;;;;;;20.17;29.00;99729.59;5074113;28;19929;-58
2021/01/08 07:22:07;;;;;;;;;;;;;;;20.16;28.78;99730.72;5073846;28;20460;-57
2021/01/08 07:24:34;;;;;;;;;;;;;;;20.16;28.77;99734.31;5063305;28;19959;-58
2021/01/08 07:27:16;;;;;;;;;;;;;;;20.15;28.91;99734.59;5069273;28;20466;-58
2021/01/08 07:29:48;;;;;;;;;;;;;;;20.13;28.85;99740.41;5054063;28;19924;-58
2021/01/08 07:32:17;;;;;;;;;;;;;;;20.16;28.85;99733.47;5053778;28;20299;-58
2021/01/08 07:34:44;;;;;;;;;;;;;;;20.17;28.87;99746.19;5054033;28;19970;-58
2021/01/08 07:37:10;;;;;;;;;;;;;;;20.16;28.74;99747.31;5054209;28;19929;-59
2021/01/08 07:39:41;;;;;;;;;;;;;;;20.15;28.74;99738.19;5054278;28;19925;-58
2021/01/08 07:42:45;;;;;;;;;;;;;;;20.18;28.80;99750.63;5054345;28;19925;-58
2021/01/08 07:45:12;;;;;;;;;;;;;;;20.17;28.62;99748.97;5051646;28;19932;-58
2021/01/08 07:47:38;;;;;;;;;;;;;;;20.20;28.64;99756.69;5035077;28;19924;-57
2021/01/08 07:50:05;;;;;;;;;;;;;;;20.24;28.54;99752.22;5038841;28;19928;-58
2021/01/08 07:52:38;;;;;;;;;;;;;;;20.24;28.55;99755.00;5053905;28;19925;-57
2021/01/08 07:55:05;;;;;;;;;;;;;;;20.23;28.79;99756.09;5052772;28;20015;-57
2021/01/08 07:57:47;;;;;;;;;;;;;;;20.23;28.72;99768.00;5054624;28;19935;-58
2021/01/08 08:00:26;;;;;;;;;;;;;;;20.24;28.74;99766.06;5053084;28;20596;-58
2021/01/08 08:02:54;;;;;;;;;;;;;;;20.21;28.63;99774.94;5053788;28;19951;-58
2021/01/08 08:05:21;;;;;;;;;;;;;;;20.23;28.77;99781.00;5053564;28;20422;-57
2021/01/08 08:07:47;;;;;;;;;;;;;;;20.21;28.56;99777.72;5068879;28;20027;-58
2021/01/08 08:10:13;;;;;;;;;;;;;;;20.19;28.84;99782.72;5068707;28;19925;-58
2021/01/08 08:12:39;;;;;;;;;;;;;;;20.15;28.93;99790.75;5068886;28;20414;-58
2021/01/08 08:15:06;;;;;;;;;;;;;;;20.12;28.91;99788.56;5052646;28;20306;-58
2021/01/08 08:17:32;;;;;;;;;;;;;;;20.15;28.67;99793.53;5068398;28;19967;-59
2021/01/08 08:19:59;;;;;;;;;;;;;;;20.18;28.72;99794.88;5052635;28;19924;-58
2021/01/08 08:22:35;;;;;;;;;;;;;;;20.21;28.76;99795.13;5051908;28;20378;-58
2021/01/08 08:25:19;;;;;;;;;;;;;;;20.23;28.47;99803.97;5052887;28;19928;-58
2021/01/08 08:27:50;;;;;;;;;;;;;;;20.24;28.63;99799.28;5053239;28;20027;-58
2021/01/08 08:30:16;;;;;;;;;;;;;;;20.26;28.67;99808.94;5067901;28;19925;-58
2021/01/08 08:32:43;;;;;;;;;;;;;;;20.30;28.67;99806.41;5052905;28;19925;-59
2021/01/08 08:35:09;;;;;;;;;;;;;;;20.31;28.72;99805.31;5070041;28;19979;-57
2021/01/08 08:37:44;;;;;;;;;;;;;;;20.32;28.58;99805.00;5069889;28;20020;-56
2021/01/08 08:40:11;;;;;;;;;;;;;;;20.38;28.55;99808.59;5053256;28;20298;-58
2021/01/08 08:42:37;;;;;;;;;;;;;;;20.39;28.43;99810.25;5053955;28;19979;-57
2021/01/08 08:45:03;;;;;;;;;;;;;;;20.38;28.27;99816.91;5068512;28;19932;-57
2021/01/08 08:47:29;;;;;;;;;;;;;;;20.38;28.42;99816.91;5056772;28;19935;-57
2021/01/08 08:50:10;;;;;;;;;;;;;;;20.39;28.62;99818.56;5058850;28;19929;-58
2021/01/08 08:52:36;;;;;;;;;;;;;;;20.37;28.64;99815.22;5054933;28;19924;-57
2021/01/08 08:55:02;;;;;;;;;;;;;;;20.37;28.42;99812.44;5069610;28;19925;-57
2021/01/08 08:57:29;;;;;;;;;;;;;;;20.37;28.55;99815.22;5054012;28;19932;-58
2021/01/08 08:59:55;;;;;;;;;;;;;;;20.34;28.57;99818.56;5069586;28;19932;-57
2021/01/08 09:02:22;;;;;;;;;;;;;;;20.34;28.45;99824.09;5053786;28;19951;-58
2021/01/08 09:04:50;;;;;;;;;;;;;;;20.33;28.44;99830.75;5053320;28;20020;-58
2021/01/08 09:07:17;;;;;;;;;;;;;;;20.32;28.39;99831.88;5051630;28;20015;-58
2021/01/08 09:09:44;;;;;;;;;;;;;;;20.32;28.45;99838.22;5067582;28;20341;-58
2021/01/08 09:12:23;;;;;;;;;;;;;;;20.31;28.58;99835.75;5067404;28;20016;-58
2021/01/08 09:14:50;;;;;;;;;;;;;;;20.30;28.67;99825.78;5067762;28;19963;-58
2021/01/08 09:17:18;;;;;;;;;;;;;;;20.30;28.48;99831.31;5067253;28;19925;-58
2021/01/08 09:19:51;;;;;;;;;;;;;;;20.30;28.62;99836.88;5051946;28;19925;-58
2021/01/08 09:22:17;;;;;;;;;;;;;;;20.32;28.44;99829.94;5066808;28;19975;-58
2021/01/08 09:24:43;;;;;;;;;;;;;;;20.35;28.37;99834.06;5051641;28;19964;-58
2021/01/08 09:27:10;;;;;;;;;;;;;;;20.34;28.49;99832.41;5052082;28;20386;-58
2021/01/08 09:29:37;;;;;;;;;;;;;;;20.35;28.46;99834.06;5067112;28;20407;-58
2021/01/08 09:32:09;;;;;;;;;;;;;;;20.36;28.51;99832.94;5056867;28;19955;-57
2021/01/08 09:34:36;;;;;;;;;;;;;;;20.38;28.52;99836.28;5053613;28;19932;-58
2021/01/08 09:37:15;;;;;;;;;;;;;;;20.46;28.51;99835.63;5051472;28;19925;-58
2021/01/08 09:39:43;;;;;;;;;;;;;;;20.50;28.27;99831.16;5052008;28;19948;-58
2021/01/08 09:42:12;;;;;;;;;;;;;;;20.52;28.39;99842.78;5050485;28;19929;-58
2021/01/08 09:44:39;;;;;;;;;;;;;;;20.55;28.25;99833.88;5051645;28;19925;-59
2021/01/08 09:47:09;;;;;;;;;;;;;;;20.56;28.35;99843.84;5051589;28;20019;-58
2021/01/08 09:49:42;;;;;;;;;;;;;;;20.56;28.04;99837.50;5050523;28;20354;-58
2021/01/08 09:52:09;;;;;;;;;;;;;;;20.58;28.15;99838.03;5051507;28;20353;-59
2021/01/08 09:54:48;;;;;;;;;;;;;;;20.58;28.34;99826.94;5050184;28;20382;-58
2021/01/08 09:57:24;;;;;;;;;;;;;;;20.56;28.24;99835.53;5067311;28;20389;-58
2021/01/08 09:59:54;;;;;;;;;;;;;;;20.55;27.98;99839.44;5051241;28;20302;-57
2021/01/08 10:02:39;;;;;;;;;;;;;;;20.54;28.09;99840.53;5050177;28;20035;-58
2021/01/08 10:05:07;;;;;;;;;;;;;;;20.53;28.25;99841.66;5066531;28;19996;-58
2021/01/08 10:07:41;;;;;;;;;;;;;;;20.54;28.37;99837.78;5051613;28;20146;-58
2021/01/08 10:10:11;;;;;;;;;;;;;;;20.56;28.22;99843.03;5051516;28;19924;-58
2021/01/08 10:12:46;;;;;;;;;;;;;;;20.53;28.26;99841.66;5051210;28;19951;-58
2021/01/08 10:15:14;;;;;;;;;;;;;;;20.53;28.32;99843.59;5054081;28;19928;-58
2021/01/08 10:17:43;;;;;;;;;;;;;;;20.54;28.31;99843.31;5053093;28;19928;-58
2021/01/08 10:20:09;;;;;;;;;;;;;;;20.54;28.03;99843.31;5053570;28;19925;-58
2021/01/08 10:22:44;;;;;;;;;;;;;;;20.60;28.34;99841.31;5070962;28;19924;-58
2021/01/08 10:25:20;;;;;;;;;;;;;;;20.64;28.20;99842.41;5054591;28;19936;-58
2021/01/08 10:28:08;;;;;;;;;;;;;;;20.68;28.23;99838.75;5055628;28;20307;-59
2021/01/08 10:30:35;;;;;;;;;;;;;;;20.72;28.25;99844.53;5055691;28;19925;-58
2021/01/08 10:33:01;;;;;;;;;;;;;;;20.73;28.19;99840.66;5072118;28;20310;-58
2021/01/08 10:35:27;;;;;;;;;;;;;;;20.70;27.91;99844.00;5071906;28;19931;-58
2021/01/08 10:37:53;;;;;;;;;;;;;;;20.68;28.02;99841.53;5055940;28;19947;-58
2021/01/08 10:40:19;;;;;;;;;;;;;;;20.67;28.25;99837.09;5056396;28;19964;-58
2021/01/08 10:42:46;;;;;;;;;;;;;;;20.63;28.12;99833.25;5055632;28;19925;-57
2021/01/08 10:45:13;;;;;;;;;;;;;;;20.63;28.27;99835.22;5071006;28;19925;-57
2021/01/08 10:47:39;;;;;;;;;;;;;;;20.62;28.30;99837.16;5058412;28;19932;-58
2021/01/08 10:50:17;;;;;;;;;;;;;;;20.60;28.27;99839.38;5059203;28;19936;-60
2021/01/08 10:52:44;;;;;;;;;;;;;;;20.58;28.16;99841.63;5055393;28;20302;-58
2021/01/08 10:55:22;;;;;;;;;;;;;;;20.59;28.34;99842.44;5056070;28;20180;-59
2021/01/08 10:57:48;;;;;;;;;;;;;;;20.58;28.17;99838.03;5060936;28;19929;-60
2021/01/08 11:00:17;;;;;;;;;;;;;;;20.58;28.20;99841.63;5060986;28;19932;-58
2021/01/08 11:02:43;;;;;;;;;;;;;;;20.60;28.26;99842.16;5055563;28;19971;-59
2021/01/08 11:05:10;;;;;;;;;;;;;;;20.61;28.19;99846.56;5071031;28;19963;-60
2021/01/08 11:07:36;;;;;;;;;;;;;;;20.62;28.16;99836.31;5055683;28;20020;-58
2021/01/08 11:10:04;;;;;;;;;;;;;;;20.63;28.19;99840.75;5055448;28;19924;-60
2021/01/08 11:12:34;;;;;;;;;;;;;;;20.63;28.14;99844.34;5056109;28;19951;-61
2021/01/08 11:15:01;;;;;;;;;;;;;;;20.63;28.05;99835.22;5055671;28;20118;-57
2021/01/08 11:17:29;;;;;;;;;;;;;;;20.61;28.27;99837.44;5056394;28;19947;-59
2021/01/08 11:19:55;;;;;;;;;;;;;;;20.60;28.25;99831.06;5056239;28;19924;-59
2021/01/08 11:22:21;;;;;;;;;;;;;;;20.60;28.16;99833.84;5055470;28;19925;-58
2021/01/08 11:24:47;;;;;;;;;;;;;;;20.58;28.21;99830.53;5055456;28;19931;-58
2021/01/08 11:27:14;;;;;;;;;;;;;;;20.56;28.14;99834.72;5071068;28;19928;-59
2021/01/08 11:29:40;;;;;;;;;;;;;;;20.57;28.24;99831.66;5053294;28;19929;-58
2021/01/08 11:32:08;;;;;;;;;;;;;;;20.57;28.09;99831.66;5055987;28;19971;-60
2021/01/08 11:34:35;;;;;;;;;;;;;;;20.55;28.22;99833.88;5055518;28;19925;-59
2021/01/08 11:37:01;;;;;;;;;;;;;;;20.57;28.15;99831.66;5071429;28;19929;-60
2021/01/08 11:39:41;;;;;;;;;;;;;;;20.56;28.30;99827.25;5060029;28;19925;-59
2021/01/08 11:42:08;;;;;;;;;;;;;;;20.57;28.00;99837.19;5057844;28;19932;-58
2021/01/08 11:44:34;;;;;;;;;;;;;;;20.57;28.23;99831.66;5069609;28;19926;-57
2021/01/08 11:47:01;;;;;;;;;;;;;;;20.56;28.28;99835.53;5055125;28;20462;-59
2021/01/08 11:49:28;;;;;;;;;;;;;;;20.57;28.04;99831.66;5053644;28;20011;-59
2021/01/08 11:51:57;;;;;;;;;;;;;;;20.60;28.28;99828.31;5053545;28;19925;-59
2021/01/08 11:54:24;;;;;;;;;;;;;;;20.66;28.08;99826.31;5053700;28;19931;-58
2021/01/08 11:56:50;;;;;;;;;;;;;;;20.71;28.22;99831.81;5049548;28;19971;-60
2021/01/08 11:59:17;;;;;;;;;;;;;;;20.73;28.03;99835.94;5064847;28;19925;-59
2021/01/08 12:01:43;;;;;;;;;;;;;;;20.76;27.75;99844.78;5070860;28;19978;-59
2021/01/08 12:04:09;;;;;;;;;;;;;;;20.76;27.96;99842.03;5055824;28;19934;-59
2021/01/08 12:06:36;;;;;;;;;;;;;;;20.75;27.97;99838.41;5069706;28;20015;-59
2021/01/08 12:09:02;;;;;;;;;;;;;;;20.75;27.99;99841.19;5053774;28;19932;-59
2021/01/08 12:11:28;;;;;;;;;;;;;;;20.76;27.97;99851.16;5054204;28;19971;-59
2021/01/08 12:13:55;;;;;;;;;;;;;;;20.75;28.10;99846.72;5052815;28;19925;-59
2021/01/08 12:16:25;;;;;;;;;;;;;;;20.73;27.79;99852.56;5069993;28;19975;-59
2021/01/08 12:18:52;;;;;;;;;;;;;;;20.73;28.03;99847.03;5054342;28;20386;-59
2021/01/08 12:21:18;;;;;;;;;;;;;;;20.71;27.92;99853.97;5054025;28;19928;-60
2021/01/08 12:23:45;;;;;;;;;;;;;;;20.68;28.19;99849.00;5053909;28;19971;-59
2021/01/08 12:26:13;;;;;;;;;;;;;;;20.68;27.91;99849.00;5054397;28;19929;-59
2021/01/08 12:28:39;;;;;;;;;;;;;;;20.73;28.01;99843.44;5057565;28;19931;-58
2021/01/08 12:31:06;;;;;;;;;;;;;;;20.83;27.79;99850.78;5045349;28;19925;-57
2021/01/08 12:33:32;;;;;;;;;;;;;;;20.87;27.77;99849.91;5060557;28;19924;-58
2021/01/08 12:35:58;;;;;;;;;;;;;;;20.91;27.57;99847.38;5053356;28;19925;-60
2021/01/08 12:38:24;;;;;;;;;;;;;;;20.94;27.50;99852.34;5052623;28;19928;-59
2021/01/08 12:40:50;;;;;;;;;;;;;;;20.94;27.42;99853.16;5053009;28;19929;-58
2021/01/08 12:43:22;;;;;;;;;;;;;;;20.94;27.49;99852.34;5052330;28;19995;-58
2021/01/08 12:45:49;;;;;;;;;;;;;;;20.95;27.58;99849.28;5053513;28;20457;-59
2021/01/08 12:48:15;;;;;;;;;;;;;;;20.96;27.31;99850.94;5052891;28;19931;-57
2021/01/08 12:50:41;;;;;;;;;;;;;;;20.95;27.68;99849.28;5054013;28;19939;-58
2021/01/08 12:53:08;;;;;;;;;;;;;;;20.99;27.44;99842.03;5052966;28;20379;-60